createdAt,value
2023-05-13T00:01:38.924Z,98654.84
2023-05-13T00:04:07.497Z,98654.00
2023-05-13T00:06:36.260Z,98654.00
2023-05-13T00:09:05.921Z,98645.94
2023-05-13T00:11:34.322Z,98651.31
2023-05-13T00:14:02.952Z,98651.31
2023-05-13T00:16:31.338Z,98652.97
2023-05-13T00:19:01.181Z,98652.97
2023-05-13T00:21:29.586Z,98649.47
2023-05-13T00:23:57.991Z,98651.31
2023-05-13T00:26:26.824Z,98659.38
2023-05-13T00:28:55.570Z,98661.25
2023-05-13T00:31:24.064Z,98659.38
2023-05-13T00:33:52.613Z,98664.78
2023-05-13T00:36:22.347Z,98655.66
2023-05-13T00:38:50.958Z,98663.75
2023-05-13T00:41:19.369Z,98659.19
2023-05-13T00:43:47.725Z,98659.38
2023-05-13T00:46:16.601Z,98663.75
2023-05-13T00:48:45.028Z,98664.78
2023-05-13T00:51:13.549Z,98667.47
2023-05-13T00:53:43.252Z,98670.16
2023-05-13T00:56:11.707Z,98670.97
2023-05-13T00:58:40.108Z,98672.84
2023-05-13T01:01:16.158Z,98670.16
2023-05-13T01:03:53.754Z,98669.31
2023-05-13T01:06:28.014Z,98668.47
2023-05-13T01:09:03.612Z,98667.63
2023-05-13T01:11:34.320Z,98672.16
2023-05-13T01:14:14.613Z,98675.69
2023-05-13T01:16:47.585Z,98672.16
2023-05-13T01:19:27.642Z,98673.16
2023-05-13T01:21:57.338Z,98677.53
2023-05-13T01:24:26.002Z,98682.94
2023-05-13T01:26:54.482Z,98687.44
2023-05-13T01:29:23.037Z,98683.91
2023-05-13T01:31:51.843Z,98682.06
2023-05-13T01:34:20.610Z,98680.41
2023-05-13T01:36:49.561Z,98678.53
2023-05-13T01:39:19.312Z,98681.22
2023-05-13T01:41:47.777Z,98683.91
2023-05-13T01:44:16.693Z,98687.44
2023-05-13T01:46:45.470Z,98680.41
2023-05-13T01:49:13.926Z,98680.41
2023-05-13T01:51:42.783Z,98683.09
2023-05-13T01:54:11.171Z,98681.22
2023-05-13T01:56:40.878Z,98682.06
2023-05-13T01:59:11.245Z,98687.44
2023-05-13T02:01:40.633Z,98686.63
2023-05-13T02:04:09.338Z,98690.13
2023-05-13T02:06:37.711Z,98683.91
2023-05-13T02:09:06.139Z,98685.78
2023-05-13T02:11:35.968Z,98686.63
2023-05-13T02:14:05.729Z,98681.22
2023-05-13T02:16:34.382Z,98683.09
2023-05-13T02:19:02.827Z,98689.47
2023-05-13T02:21:32.063Z,98689.47
2023-05-13T02:24:00.637Z,98680.56
2023-05-13T02:26:29.028Z,98684.09
2023-05-13T02:28:57.729Z,98684.91
2023-05-13T02:31:27.902Z,98688.63
2023-05-13T02:33:56.286Z,98691.47
2023-05-13T02:36:24.792Z,98686.09
2023-05-13T02:38:53.086Z,98695.03
2023-05-13T02:41:21.695Z,98692.34
2023-05-13T02:43:50.045Z,98697.72
2023-05-13T02:46:18.478Z,98686.09
2023-05-13T02:48:48.660Z,98691.47
2023-05-13T02:51:16.991Z,98698.56
2023-05-13T02:53:45.522Z,98698.56
2023-05-13T02:56:16.294Z,98702.25
2023-05-13T02:58:44.832Z,98699.75
2023-05-13T03:01:13.422Z,98705.13
2023-05-13T03:03:41.932Z,98704.09
2023-05-13T03:06:11.894Z,98712.34
2023-05-13T03:08:40.244Z,98719.41
2023-05-13T03:11:08.720Z,98714.19
2023-05-13T03:13:37.179Z,98720.44
2023-05-13T03:16:06.148Z,98707.97
2023-05-13T03:18:36.230Z,98716.88
2023-05-13T03:21:04.654Z,98717.91
2023-05-13T03:23:35.198Z,98713.34
2023-05-13T03:26:03.816Z,98717.91
2023-05-13T03:28:32.511Z,98715.41
2023-05-13T03:31:01.045Z,98718.91
2023-05-13T03:33:30.001Z,98727.00
2023-05-13T03:35:58.480Z,98721.59
2023-05-13T03:38:26.857Z,98721.59
2023-05-13T03:40:56.829Z,98730.66
2023-05-13T03:43:25.140Z,98728.84
2023-05-13T03:45:53.490Z,98732.38
2023-05-13T03:48:22.016Z,98736.06
2023-05-13T03:50:50.457Z,98734.22
2023-05-13T03:53:19.279Z,98744.13
2023-05-13T03:55:47.632Z,98748.50
2023-05-13T03:58:17.415Z,98742.28
2023-05-13T04:00:47.789Z,98754.88
2023-05-13T04:03:17.351Z,98752.19
2023-05-13T04:05:47.160Z,98755.75
2023-05-13T04:08:15.530Z,98759.28
2023-05-13T04:10:44.852Z,98762.94
2023-05-13T04:13:13.203Z,98765.63
2023-05-13T04:15:42.930Z,98762.94
2023-05-13T04:18:11.387Z,98763.81
2023-05-13T04:20:40.127Z,98766.50
2023-05-13T04:23:08.768Z,98768.31
2023-05-13T04:25:37.838Z,98769.19
2023-05-13T04:28:07.241Z,98766.50
2023-05-13T04:30:36.446Z,98776.25
2023-05-13T04:33:06.782Z,98768.16
2023-05-13T04:35:35.376Z,98776.25
2023-05-13T04:38:03.834Z,98767.34
2023-05-13T04:40:32.255Z,98772.03
2023-05-13T04:43:00.898Z,98768.31
2023-05-13T04:45:29.639Z,98770.03
2023-05-13T04:47:58.569Z,98779.97
2023-05-13T04:50:28.498Z,98778.09
2023-05-13T04:52:57.626Z,98774.56
2023-05-13T04:55:27.531Z,98781.78
2023-05-13T04:57:56.313Z,98783.47
2023-05-13T05:00:25.358Z,98780.78
2023-05-13T05:02:53.850Z,98786.16
2023-05-13T05:05:22.400Z,98788.03
2023-05-13T05:07:52.340Z,98789.03
2023-05-13T05:10:21.106Z,98793.41
2023-05-13T05:12:49.967Z,98794.41
2023-05-13T05:15:18.363Z,98798.94
2023-05-13T05:17:46.864Z,98800.63
2023-05-13T05:20:15.582Z,98798.94
2023-05-13T05:22:43.998Z,98795.22
2023-05-13T05:25:15.654Z,98807.69
2023-05-13T05:27:44.310Z,98803.31
2023-05-13T05:30:14.734Z,98795.22
2023-05-13T05:32:43.277Z,98797.75
2023-05-13T05:35:11.657Z,98806.66
2023-05-13T05:37:40.195Z,98805.66
2023-05-13T05:40:10.452Z,98805.66
2023-05-13T05:42:40.302Z,98803.97
2023-05-13T05:45:10.358Z,98811.91
2023-05-13T05:47:38.876Z,98806.50
2023-05-13T05:50:08.743Z,98801.13
2023-05-13T05:52:37.167Z,98815.22
2023-05-13T05:55:07.803Z,98808.03
2023-05-13T05:57:36.173Z,98807.00
2023-05-13T06:00:08.201Z,98813.22
2023-05-13T06:02:36.572Z,98811.56
2023-05-13T06:05:05.354Z,98819.44
2023-05-13T06:07:33.956Z,98816.75
2023-05-13T06:10:02.322Z,98814.91
2023-05-13T06:12:30.923Z,98819.44
2023-05-13T06:14:59.393Z,98821.13
2023-05-13T06:17:29.370Z,98827.34
2023-05-13T06:19:59.121Z,98820.31
2023-05-13T06:22:27.626Z,98823.00
2023-05-13T06:24:56.726Z,98821.13
2023-05-13T06:27:25.888Z,98822.84
2023-05-13T06:29:54.630Z,98821.84
2023-05-13T06:32:23.021Z,98821.84
2023-05-13T06:34:54.632Z,98821.66
2023-05-13T06:37:24.470Z,98818.97
2023-05-13T06:39:52.938Z,98817.31
2023-05-13T06:42:21.321Z,98809.72
2023-05-13T06:44:49.790Z,98817.63
2023-05-13T06:47:18.291Z,98820.13
2023-05-13T06:49:46.935Z,98816.47
2023-05-13T06:52:16.686Z,98818.13
2023-05-13T06:54:45.181Z,98825.16
2023-05-13T06:57:13.489Z,98814.06
2023-05-13T06:59:41.915Z,98803.81
2023-05-13T07:02:11.402Z,98811.22
2023-05-13T07:04:39.735Z,98809.88
2023-05-13T07:07:08.320Z,98809.00
2023-05-13T07:09:41.122Z,98797.25
2023-05-13T07:12:11.023Z,98788.16
2023-05-13T07:14:39.447Z,98794.91
2023-05-13T07:17:08.023Z,98799.41
2023-05-13T07:19:36.559Z,98778.75
2023-05-13T07:22:05.128Z,98784.97
2023-05-13T07:24:33.650Z,98785.94
2023-05-13T07:27:04.010Z,98794.53
2023-05-13T07:29:32.785Z,98791.03
2023-05-13T07:32:05.795Z,98788.66
2023-05-13T07:34:34.170Z,98792.19
2023-05-13T07:37:04.203Z,98789.84
2023-05-13T07:39:33.043Z,98784.97
2023-05-13T07:42:02.889Z,98793.34
2023-05-13T07:44:31.576Z,98783.78
2023-05-13T07:47:00.107Z,98790.47
2023-05-13T07:49:28.885Z,98789.84
2023-05-13T07:51:57.301Z,98791.66
2023-05-13T07:54:25.675Z,98785.94
2023-05-13T07:56:54.167Z,98785.78
2023-05-13T07:59:23.971Z,98776.69
2023-05-13T08:01:52.773Z,98788.66
2023-05-13T08:04:21.399Z,98783.44
2023-05-13T08:06:49.915Z,98785.78
2023-05-13T08:09:18.442Z,98779.94
2023-05-13T08:11:47.169Z,98792.34
2023-05-13T08:14:15.704Z,98781.78
2023-05-13T08:16:45.577Z,98790.53
2023-05-13T08:19:15.473Z,98786.84
2023-05-13T08:21:44.106Z,98790.72
2023-05-13T08:24:13.030Z,98778.25
2023-05-13T08:26:41.419Z,98776.75
2023-05-13T08:29:13.047Z,98802.16
2023-05-13T08:31:42.001Z,98798.25
2023-05-13T08:34:12.000Z,98798.94
2023-05-13T08:36:40.355Z,98802.13
2023-05-13T08:39:08.800Z,98792.88
2023-05-13T08:41:37.134Z,98793.72
2023-05-13T08:44:06.886Z,98796.94
2023-05-13T08:46:35.955Z,98791.56
2023-05-13T08:49:04.732Z,98794.59
2023-05-13T08:51:34.496Z,98788.19
2023-05-13T08:54:03.683Z,98803.50
2023-05-13T08:56:32.527Z,98805.34
2023-05-13T08:59:00.920Z,98791.03
2023-05-13T09:01:29.318Z,98798.94
2023-05-13T09:04:00.569Z,98791.56
2023-05-13T09:06:29.735Z,98801.63
2023-05-13T09:08:59.695Z,98794.94
2023-05-13T09:11:28.300Z,98790.19
2023-05-13T09:14:00.055Z,98781.78
2023-05-13T09:16:29.981Z,98793.41
2023-05-13T09:19:00.037Z,98785.00
2023-05-13T09:21:30.293Z,98801.50
2023-05-13T09:24:13.350Z,98779.63
2023-05-13T09:26:42.495Z,98775.06
2023-05-13T09:29:19.204Z,98791.06
2023-05-13T09:31:49.128Z,98789.19
2023-05-13T09:34:26.162Z,98778.44
2023-05-13T09:37:00.704Z,98787.16
2023-05-13T09:39:32.287Z,98785.47
2023-05-13T09:42:04.899Z,98781.78
2023-05-13T09:44:34.189Z,98809.69
2023-05-13T09:47:03.716Z,98780.94
2023-05-13T09:49:32.722Z,98785.31
2023-05-13T09:52:01.469Z,98779.09
2023-05-13T09:54:37.384Z,98784.31
2023-05-13T09:57:06.585Z,98782.63
2023-05-13T09:59:35.042Z,98773.06
2023-05-13T10:02:05.506Z,98766.50
2023-05-13T10:04:34.150Z,98781.63
2023-05-13T10:07:04.279Z,98770.84
2023-05-13T10:09:38.243Z,98789.69
2023-05-13T10:12:08.688Z,98769.00
2023-05-13T10:14:37.746Z,98774.38
2023-05-13T10:17:07.055Z,98770.69
2023-05-13T10:19:35.585Z,98765.13
2023-05-13T10:22:07.292Z,98780.28
2023-05-13T10:24:38.525Z,98789.00
2023-05-13T10:27:09.090Z,98766.97
2023-05-13T10:29:39.124Z,98760.75
2023-05-13T10:32:09.360Z,98785.81
2023-05-13T10:34:38.401Z,98801.28
2023-05-13T10:37:46.825Z,98786.31
2023-05-13T10:40:50.112Z,98788.03
2023-05-13T10:43:23.397Z,98790.03
2023-05-13T10:45:56.235Z,98775.56
2023-05-13T10:48:24.864Z,98763.97
2023-05-13T10:50:54.518Z,98771.00
2023-05-13T10:53:25.275Z,98786.84
2023-05-13T10:55:59.253Z,98774.22
2023-05-13T10:58:32.999Z,98803.31
2023-05-13T11:01:15.865Z,98779.75
2023-05-13T11:03:52.562Z,98778.09
2023-05-13T11:06:22.434Z,98767.31
2023-05-13T11:08:53.595Z,98766.50
2023-05-13T11:11:30.663Z,98774.72
2023-05-13T11:14:17.044Z,98776.06
2023-05-13T11:16:51.220Z,98765.31
2023-05-13T11:19:24.947Z,98771.34
2023-05-13T11:21:54.531Z,98774.91
2023-05-13T11:24:23.152Z,98780.09
2023-05-13T11:26:53.225Z,98789.53
2023-05-13T11:29:33.524Z,98796.06
2023-05-13T11:32:03.251Z,98817.44
2023-05-13T11:34:31.702Z,98812.41
2023-05-13T11:37:10.762Z,98803.66
2023-05-13T11:39:41.355Z,98811.91
2023-05-13T11:42:10.506Z,98808.19
2023-05-13T11:44:46.808Z,98786.00
2023-05-13T11:47:15.834Z,98796.59
2023-05-13T11:49:45.105Z,98795.41
2023-05-13T11:52:15.384Z,98795.41
2023-05-13T11:54:46.522Z,98790.88
2023-05-13T11:57:25.349Z,98790.88
2023-05-13T11:59:58.237Z,98784.47
2023-05-13T12:02:28.824Z,98779.09
2023-05-13T12:04:57.436Z,98786.31
2023-05-13T12:07:26.562Z,98781.78
2023-05-13T12:09:57.495Z,98778.09
2023-05-13T12:12:26.841Z,98791.53
2023-05-13T12:14:57.003Z,98787.16
2023-05-13T12:17:25.490Z,98789.69
2023-05-13T12:20:08.179Z,98783.47
2023-05-13T12:22:37.095Z,98788.03
2023-05-13T12:25:43.415Z,98774.56
2023-05-13T12:28:14.336Z,98775.41
2023-05-13T12:30:45.371Z,98775.41
2023-05-13T12:33:17.185Z,98768.16
2023-05-13T12:35:45.742Z,98782.44
2023-05-13T12:38:18.121Z,98781.47
2023-05-13T12:40:47.408Z,98775.22
2023-05-13T12:43:16.956Z,98769.81
2023-05-13T12:45:48.237Z,98775.22
2023-05-13T12:48:16.693Z,98769.81
2023-05-13T12:50:45.231Z,98766.13
2023-05-13T12:53:13.657Z,98759.94
2023-05-13T12:55:42.142Z,98774.22
2023-05-13T12:58:12.264Z,98761.59
2023-05-13T13:00:40.722Z,98760.75
2023-05-13T13:03:11.413Z,98761.59
2023-05-13T13:05:39.907Z,98758.06
2023-05-13T13:08:08.749Z,98757.22
2023-05-13T13:10:37.124Z,98756.22
2023-05-13T13:13:05.464Z,98746.28
2023-05-13T13:15:33.976Z,98750.81
2023-05-13T13:18:02.359Z,98745.44
2023-05-13T13:20:32.254Z,98747.97
2023-05-13T13:23:02.085Z,98741.72
2023-05-13T13:25:30.442Z,98737.53
2023-05-13T13:27:58.917Z,98736.34
2023-05-13T13:30:27.523Z,98744.78
2023-05-13T13:32:56.162Z,98740.91
2023-05-13T13:35:24.716Z,98742.75
2023-05-13T13:37:56.356Z,98740.91
2023-05-13T13:40:25.080Z,98738.22
2023-05-13T13:42:53.517Z,98746.47
2023-05-13T13:45:24.228Z,98740.06
2023-05-13T13:47:52.782Z,98742.75
2023-05-13T13:50:21.839Z,98740.91
2023-05-13T13:52:52.373Z,98738.41
2023-05-13T13:55:22.438Z,98743.78
2023-05-13T13:57:50.907Z,98754.53
2023-05-13T14:00:19.582Z,98751.84
2023-05-13T14:02:48.677Z,98750.16
2023-05-13T14:05:17.765Z,98744.78
2023-05-13T14:07:46.424Z,98752.84
2023-05-13T14:10:15.189Z,98748.28
2023-05-13T14:12:44.926Z,98744.09
2023-05-13T14:15:14.024Z,98754.03
2023-05-13T14:17:42.440Z,98760.41
2023-05-13T14:20:12.258Z,98752.50
2023-05-13T14:22:40.891Z,98758.75
2023-05-13T14:25:10.407Z,98757.88
2023-05-13T14:27:38.826Z,98755.03
2023-05-13T14:30:10.450Z,98756.88
2023-05-13T14:32:38.839Z,98759.72
2023-05-13T14:35:08.668Z,98755.19
2023-05-13T14:37:37.075Z,98753.34
2023-05-13T14:40:07.109Z,98748.13
2023-05-13T14:42:35.692Z,98756.22
2023-05-13T14:45:04.121Z,98763.44
2023-05-13T14:47:33.976Z,98758.75
2023-05-13T14:50:02.404Z,98760.56
2023-05-13T14:52:30.804Z,98757.03
2023-05-13T14:54:59.205Z,98759.72
2023-05-13T14:57:27.805Z,98761.59
2023-05-13T14:59:57.576Z,98758.91
2023-05-13T15:02:27.317Z,98761.59
2023-05-13T15:04:57.249Z,98761.59
2023-05-13T15:07:25.689Z,98756.22
2023-05-13T15:09:54.219Z,98755.38
2023-05-13T15:12:23.067Z,98754.34
2023-05-13T15:14:54.038Z,98758.91
2023-05-13T15:17:22.609Z,98752.50
2023-05-13T15:19:51.051Z,98757.03
2023-05-13T15:22:21.034Z,98753.34
2023-05-13T15:24:49.430Z,98764.28
2023-05-13T15:27:19.562Z,98765.13
2023-05-13T15:29:48.049Z,98758.06
2023-05-13T15:32:16.412Z,98762.44
2023-05-13T15:34:45.334Z,98761.59
2023-05-13T15:37:13.729Z,98767.81
2023-05-13T15:39:44.353Z,98767.81
2023-05-13T15:42:12.746Z,98759.72
2023-05-13T15:44:41.165Z,98763.25
2023-05-13T15:47:09.798Z,98757.03
2023-05-13T15:49:38.272Z,98753.53
2023-05-13T15:52:07.365Z,98762.63
2023-05-13T15:54:35.929Z,98752.69
2023-05-13T15:57:06.130Z,98756.22
2023-05-13T15:59:34.532Z,98757.22
2023-05-13T16:02:03.089Z,98752.69
2023-05-13T16:04:32.486Z,98761.59
2023-05-13T16:07:01.415Z,98756.56
2023-05-13T16:09:30.097Z,98761.59
2023-05-13T16:11:58.540Z,98755.38
2023-05-13T16:14:29.650Z,98752.34
2023-05-13T16:16:58.170Z,98759.56
2023-05-13T16:19:26.614Z,98752.34
2023-05-13T16:21:55.359Z,98755.19
2023-05-13T16:24:23.685Z,98763.44
2023-05-13T16:26:53.450Z,98746.13
2023-05-13T16:29:21.873Z,98745.94
2023-05-13T16:31:52.012Z,98745.78
2023-05-13T16:34:20.568Z,98738.88
2023-05-13T16:36:49.006Z,98733.34
2023-05-13T16:39:17.429Z,98747.78
2023-05-13T16:41:46.521Z,98745.78
2023-05-13T16:44:14.942Z,98737.69
2023-05-13T16:46:43.311Z,98740.38
2023-05-13T16:49:13.258Z,98734.81
2023-05-13T16:51:41.636Z,98735.00
2023-05-13T16:54:10.099Z,98737.69
2023-05-13T16:56:38.543Z,98736.50
2023-05-13T16:59:06.886Z,98731.97
2023-05-13T17:01:35.383Z,98735.84
2023-05-13T17:04:03.844Z,98732.97
2023-05-13T17:06:34.128Z,98734.81
2023-05-13T17:09:02.446Z,98742.88
2023-05-13T17:11:31.000Z,98734.50
2023-05-13T17:13:59.417Z,98741.53
2023-05-13T17:16:27.921Z,98742.72
2023-05-13T17:18:58.967Z,98746.44
2023-05-13T17:21:27.773Z,98741.06
2023-05-13T17:23:57.665Z,98734.81
2023-05-13T17:26:26.371Z,98743.75
2023-05-13T17:28:54.808Z,98741.06
2023-05-13T17:31:23.755Z,98738.38
2023-05-13T17:33:52.174Z,98740.19
2023-05-13T17:36:20.735Z,98733.97
2023-05-13T17:38:49.552Z,98746.09
2023-05-13T17:41:19.392Z,98749.28
2023-05-13T17:43:47.979Z,98741.56
2023-05-13T17:46:16.442Z,98741.72
2023-05-13T17:48:45.173Z,98743.44
2023-05-13T17:51:13.665Z,98740.06
2023-05-13T17:53:41.993Z,98740.41
2023-05-13T17:56:10.686Z,98746.28
2023-05-13T17:58:40.623Z,98758.75
2023-05-13T18:01:09.070Z,98746.13
2023-05-13T18:03:37.456Z,98745.44
2023-05-13T18:06:06.622Z,98756.22
2023-05-13T18:08:36.398Z,98747.31
2023-05-13T18:11:04.836Z,98757.72
2023-05-13T18:13:33.410Z,98751.16
2023-05-13T18:16:04.540Z,98752.81
2023-05-13T18:18:33.113Z,98754.88
2023-05-13T18:21:01.815Z,98755.50
2023-05-13T18:23:30.299Z,98758.03
2023-05-13T18:25:58.905Z,98757.22
2023-05-13T18:28:27.549Z,98763.44
2023-05-13T18:30:56.113Z,98757.84
2023-05-13T18:33:26.209Z,98760.91
2023-05-13T18:35:54.718Z,98765.94
2023-05-13T18:38:23.807Z,98767.97
2023-05-13T18:40:52.301Z,98773.34
2023-05-13T18:43:20.908Z,98780.06
2023-05-13T18:45:49.701Z,98774.19
2023-05-13T18:48:18.163Z,98770.81
2023-05-13T18:50:48.166Z,98776.69
2023-05-13T18:53:16.609Z,98779.56
2023-05-13T18:55:45.208Z,98782.06
2023-05-13T18:58:13.583Z,98780.56
2023-05-13T19:00:42.019Z,98787.81
2023-05-13T19:03:10.659Z,98790.69
2023-05-13T19:05:39.139Z,98780.75
2023-05-13T19:08:09.136Z,98782.44
2023-05-13T19:10:40.300Z,98785.13
2023-05-13T19:13:09.468Z,98785.31
2023-05-13T19:15:37.854Z,98785.13
2023-05-13T19:18:06.325Z,98792.34
2023-05-13T19:20:34.968Z,98792.19
2023-05-13T19:23:03.409Z,98789.50
2023-05-13T19:25:33.321Z,98791.34
2023-05-13T19:28:02.686Z,98785.94
2023-05-13T19:30:31.201Z,98792.19
2023-05-13T19:32:59.921Z,98794.69
2023-05-13T19:35:28.419Z,98784.13
2023-05-13T19:37:57.465Z,98789.50
2023-05-13T19:40:26.228Z,98786.81
2023-05-13T19:42:56.697Z,98795.72
2023-05-13T19:45:25.072Z,98801.25
2023-05-13T19:47:53.762Z,98797.59
2023-05-13T19:50:22.589Z,98792.19
2023-05-13T19:52:51.320Z,98795.88
2023-05-13T19:55:20.561Z,98792.00
2023-05-13T19:57:48.973Z,98799.25
2023-05-13T20:00:20.159Z,98799.94
2023-05-13T20:02:48.787Z,98794.69
2023-05-13T20:05:17.344Z,98793.72
2023-05-13T20:07:45.909Z,98801.59
2023-05-13T20:10:14.513Z,98787.66
2023-05-13T20:12:43.076Z,98786.47
2023-05-13T20:15:12.241Z,98797.22
2023-05-13T20:17:42.129Z,98794.53
2023-05-13T20:20:11.743Z,98794.53
2023-05-13T20:22:40.090Z,98789.16
2023-05-13T20:25:09.813Z,98781.91
2023-05-13T20:27:38.202Z,98785.44
2023-05-13T20:30:08.595Z,98790.81
2023-05-13T20:32:37.170Z,98780.25
2023-05-13T20:35:10.479Z,98785.44
2023-05-13T20:37:39.328Z,98783.78
2023-05-13T20:40:09.565Z,98779.22
2023-05-13T20:42:37.910Z,98781.09
2023-05-13T20:45:08.879Z,98774.69
2023-05-13T20:47:37.705Z,98777.38
2023-05-13T20:50:09.450Z,98777.03
2023-05-13T20:52:37.815Z,98777.88
2023-05-13T20:55:07.822Z,98781.44
2023-05-13T20:57:36.232Z,98782.94
2023-05-13T21:00:05.805Z,98779.38
2023-05-13T21:02:34.376Z,98774.00
2023-05-13T21:05:02.783Z,98779.22
2023-05-13T21:07:32.611Z,98773.84
2023-05-13T21:10:01.091Z,98772.19
2023-05-13T21:12:29.580Z,98771.31
2023-05-13T21:14:58.014Z,98765.94
2023-05-13T21:17:26.629Z,98765.09
2023-05-13T21:19:55.070Z,98765.94
2023-05-13T21:22:23.595Z,98770.47
2023-05-13T21:24:53.295Z,98776.69
2023-05-13T21:27:21.831Z,98771.31
2023-05-13T21:29:50.233Z,98772.19
2023-05-13T21:32:18.927Z,98772.19
2023-05-13T21:34:47.518Z,98768.47
2023-05-13T21:37:16.897Z,98771.31
2023-05-13T21:39:45.980Z,98766.13
2023-05-13T21:42:15.693Z,98769.66
2023-05-13T21:44:46.743Z,98769.81
2023-05-13T21:47:15.165Z,98776.06
2023-05-13T21:49:44.106Z,98764.41
2023-05-13T21:52:12.608Z,98767.97
2023-05-13T21:54:41.336Z,98767.13
2023-05-13T21:57:10.109Z,98765.44
2023-05-13T21:59:39.979Z,98762.75
2023-05-13T22:02:09.613Z,98760.91
2023-05-13T22:04:38.018Z,98764.59
2023-05-13T22:07:06.845Z,98759.22
2023-05-13T22:09:35.707Z,98760.91
2023-05-13T22:12:04.343Z,98760.06
2023-05-13T22:14:33.000Z,98754.69
2023-05-13T22:17:09.777Z,98753.84
2023-05-13T22:19:39.145Z,98763.78
2023-05-13T22:22:07.620Z,98761.91
2023-05-13T22:24:36.041Z,98757.56
2023-05-13T22:27:04.606Z,98762.06
2023-05-13T22:29:33.142Z,98755.84
2023-05-13T22:32:03.299Z,98755.84
2023-05-13T22:34:31.686Z,98755.84
2023-05-13T22:37:00.043Z,98760.41
2023-05-13T22:39:28.420Z,98757.72
2023-05-13T22:41:56.792Z,98753.16
2023-05-13T22:44:25.887Z,98754.00
2023-05-13T22:46:54.702Z,98747.78
2023-05-13T22:49:24.680Z,98750.47
2023-05-13T22:51:53.205Z,98753.16
2023-05-13T22:54:21.587Z,98749.66
2023-05-13T22:56:50.094Z,98755.03
2023-05-13T22:59:18.471Z,98749.66
2023-05-13T23:01:46.885Z,98748.81
2023-05-13T23:04:15.683Z,98744.41
2023-05-13T23:06:45.459Z,98750.13
2023-05-13T23:09:13.952Z,98755.69
2023-05-13T23:11:42.354Z,98757.56
2023-05-13T23:14:10.755Z,98748.81
2023-05-13T23:16:39.330Z,98741.72
2023-05-13T23:19:07.815Z,98743.59
2023-05-13T23:21:37.386Z,98739.03
2023-05-13T23:24:07.352Z,98740.06
2023-05-13T23:26:35.806Z,98741.72
2023-05-13T23:29:04.951Z,98741.09
2023-05-13T23:31:33.621Z,98731.31
2023-05-13T23:34:02.224Z,98732.16
2023-05-13T23:36:31.143Z,98730.47
2023-05-13T23:38:59.448Z,98725.94
2023-05-13T23:41:29.408Z,98725.94
2023-05-13T23:43:57.750Z,98723.44
2023-05-13T23:46:26.769Z,98718.88
2023-05-13T23:48:55.215Z,98710.81
2023-05-13T23:51:23.602Z,98711.81
2023-05-13T23:53:52.093Z,98711.81
2023-05-13T23:56:21.494Z,98712.81
2023-05-13T23:58:51.350Z,98711.81
